Time;durP1;ratioP1;P1;durP2;ratioP2;P2;SDS_P1;SDS_P2;PMS_P1;PMS_P2;Temp;Humidity;BMP_temperature;BMP_pressure;BME280_temperature;BME280_humidity;BME280_pressure;Samples;Min_cycle;Max_cycle;Signal;HPM_P1;HPM_P2
2022/08/08 00:07:53;;;;;;;1.7;3.9;;;;;;;13;100;99140;;;;
2022/08/08 00:17:53;;;;;;;1.7;3.9;;;;;;;13.1;100;99130;;;;
2022/08/08 00:27:53;;;;;;;1.7;3.9;;;;;;;13.1;100;99130;;;;
2022/08/08 00:38:53;;;;;;;1.8;4.5;;;;;;;13.3;100;99120;;;;
2022/08/08 00:48:53;;;;;;;1.8;4.5;;;;;;;13.2;100;99130;;;;
2022/08/08 00:59:53;;;;;;;1.7;4;;;;;;;13.3;100;99130;;;;
2022/08/08 01:10:53;;;;;;;1.7;4;;;;;;;13.3;100;99120;;;;
2022/08/08 01:21:53;;;;;;;1.7;4;;;;;;;13.3;100;99110;;;;
2022/08/08 01:31:53;;;;;;;1.9;6.6;;;;;;;13.3;100;99110;;;;
2022/08/08 01:42:53;;;;;;;1.9;6.6;;;;;;;13.5;100;99110;;;;
2022/08/08 01:53:53;;;;;;;1.9;6.6;;;;;;;13.5;100;99110;;;;
2022/08/08 02:04:53;;;;;;;1.8;4;;;;;;;13.6;100;99110;;;;
2022/08/08 02:14:53;;;;;;;1.8;4;;;;;;;13.5;100;99110;;;;
2022/08/08 02:25:53;;;;;;;1.8;4;;;;;;;13.5;100;99110;;;;
2022/08/08 02:36:53;;;;;;;2.5;6.1;;;;;;;13.4;100;99110;;;;
2022/08/08 02:47:53;;;;;;;2.5;6.1;;;;;;;13.3;100;99110;;;;
2022/08/08 02:58:53;;;;;;;2.5;6.1;;;;;;;13.4;100;99110;;;;
2022/08/08 03:08:53;;;;;;;2;5.2;;;;;;;13.5;100;99100;;;;
2022/08/08 03:18:53;;;;;;;2;5.2;;;;;;;13.4;100;99130;;;;
2022/08/08 03:28:53;;;;;;;2.3;5.7;;;;;;;13.6;100;99150;;;;
2022/08/08 03:38:53;;;;;;;2.3;5.7;;;;;;;13.8;100;99150;;;;
2022/08/08 03:48:53;;;;;;;2.3;5.7;;;;;;;14;100;99150;;;;
2022/08/08 03:58:53;;;;;;;2.3;4.3;;;;;;;14;100;99160;;;;
2022/08/08 04:09:53;;;;;;;2.3;4.3;;;;;;;14.1;100;99170;;;;
2022/08/08 04:19:55;;;;;;;2.3;4.3;;;;;;;14.2;100;99170;;;;
2022/08/08 04:29:53;;;;;;;2.7;7.3;;;;;;;14.1;100;99170;;;;
2022/08/08 04:40:53;;;;;;;2.7;7.3;;;;;;;14.3;100;99190;;;;
2022/08/08 04:50:53;;;;;;;2.7;7.3;;;;;;;14;100;99180;;;;
2022/08/08 05:00:53;;;;;;;2.6;5.4;;;;;;;14.1;100;99190;;;;
2022/08/08 05:11:53;;;;;;;2.6;5.4;;;;;;;14.3;100;99180;;;;
2022/08/08 05:21:54;;;;;;;2.6;5.4;;;;;;;14.3;100;99190;;;;
2022/08/08 05:31:53;;;;;;;2.5;6.3;;;;;;;14.4;100;99190;;;;
2022/08/08 05:42:53;;;;;;;2.5;6.3;;;;;;;14.3;100;99190;;;;
2022/08/08 05:52:53;;;;;;;2.5;6.3;;;;;;;13.9;100;99210;;;;
2022/08/08 06:03:09;;;;;;;2;5.8;;;;;;;14.2;100;99210;;;;
2022/08/08 06:12:53;;;;;;;2;5.8;;;;;;;14.4;100;99220;;;;
2022/08/08 06:23:54;;;;;;;2;5.8;;;;;;;14.5;100;99240;;;;
2022/08/08 06:33:53;;;;;;;1.7;3.7;;;;;;;14.8;100;99240;;;;
2022/08/08 06:44:53;;;;;;;1.7;3.7;;;;;;;15.5;100;99260;;;;
2022/08/08 06:55:53;;;;;;;1.7;3.7;;;;;;;15.9;100;99260;;;;
2022/08/08 07:05:53;;;;;;;2.1;4.2;;;;;;;15.9;100;99260;;;;
2022/08/08 07:15:53;;;;;;;2.1;4.2;;;;;;;15.9;100;99260;;;;
2022/08/08 07:25:53;;;;;;;2.1;4.2;;;;;;;16;100;99250;;;;
2022/08/08 07:36:53;;;;;;;2.3;6.5;;;;;;;16.5;100;99270;;;;
2022/08/08 07:47:53;;;;;;;2.3;6.5;;;;;;;17;100;99280;;;;
2022/08/08 07:57:53;;;;;;;2.3;6.5;;;;;;;17.7;100;99270;;;;
2022/08/08 08:07:53;;;;;;;2.1;4.5;;;;;;;17.8;100;99270;;;;
2022/08/08 08:17:53;;;;;;;2.1;4.5;;;;;;;18.7;100;99280;;;;
2022/08/08 08:28:53;;;;;;;2.1;4.9;;;;;;;19.6;100;99290;;;;
2022/08/08 08:38:53;;;;;;;2.1;4.9;;;;;;;20.1;100;99300;;;;
2022/08/08 08:49:53;;;;;;;2.1;4.9;;;;;;;19.7;100;99300;;;;
2022/08/08 08:59:54;;;;;;;1.2;3;;;;;;;19.6;100;99300;;;;
2022/08/08 09:10:53;;;;;;;1.2;3;;;;;;;19.7;100;99290;;;;
2022/08/08 09:21:53;;;;;;;1.2;3;;;;;;;20;100;99290;;;;
2022/08/08 09:32:53;;;;;;;1.1;3.3;;;;;;;20.3;100;99290;;;;
2022/08/08 09:42:53;;;;;;;1.1;3.3;;;;;;;20.8;99;99290;;;;
2022/08/08 09:52:53;;;;;;;1.1;3.3;;;;;;;20.4;98.2;99280;;;;
2022/08/08 10:02:53;;;;;;;1.2;4.5;;;;;;;21.1;97.9;99290;;;;
2022/08/08 10:13:53;;;;;;;1.2;4.5;;;;;;;21.6;94.6;99280;;;;
2022/08/08 10:23:53;;;;;;;1.2;4.5;;;;;;;21.7;90.2;99280;;;;
2022/08/08 10:33:53;;;;;;;1.5;5.2;;;;;;;22.2;86.2;99280;;;;
2022/08/08 10:44:53;;;;;;;1.5;5.2;;;;;;;22.8;81.1;99280;;;;
2022/08/08 10:55:54;;;;;;;1.5;5.2;;;;;;;23.1;78.6;99270;;;;
2022/08/08 11:05:53;;;;;;;1.2;3.3;;;;;;;23.7;78.1;99270;;;;
2022/08/08 11:15:53;;;;;;;1.2;3.3;;;;;;;24.3;73.3;99280;;;;
2022/08/08 11:25:53;;;;;;;1.2;3.3;;;;;;;24.5;77.5;99270;;;;
2022/08/08 11:36:54;;;;;;;1.4;4.3;;;;;;;24.3;74.9;99270;;;;
2022/08/08 11:47:53;;;;;;;1.4;4.3;;;;;;;24.2;75.8;99270;;;;
2022/08/08 11:57:53;;;;;;;1.4;4.3;;;;;;;23.8;78.3;99260;;;;
2022/08/08 12:08:54;;;;;;;1.1;4.7;;;;;;;24.6;79.6;99250;;;;
2022/08/08 12:18:53;;;;;;;1.1;4.7;;;;;;;24.6;80.7;99240;;;;
2022/08/08 12:29:53;;;;;;;1.3;3.5;;;;;;;23.9;79.8;99240;;;;
2022/08/08 12:40:53;;;;;;;1.3;3.5;;;;;;;24;83.2;99220;;;;
2022/08/08 12:50:53;;;;;;;1.3;3.5;;;;;;;24;83.2;99240;;;;
2022/08/08 13:01:53;;;;;;;1.2;3.6;;;;;;;24.1;82.1;99230;;;;
2022/08/08 13:11:53;;;;;;;1.2;3.6;;;;;;;25;80.3;99220;;;;
2022/08/08 13:22:55;;;;;;;1.2;3.6;;;;;;;24.5;77.5;99220;;;;
2022/08/08 13:33:53;;;;;;;1.4;3.5;;;;;;;24.7;79.5;99220;;;;
2022/08/08 13:43:53;;;;;;;1.4;3.5;;;;;;;25.2;77.6;99210;;;;
2022/08/08 13:54:53;;;;;;;1.4;3.5;;;;;;;25.5;70.5;99190;;;;
2022/08/08 14:05:54;;;;;;;1.2;3.3;;;;;;;24.9;72.6;99200;;;;
2022/08/08 14:15:53;;;;;;;1.2;3.3;;;;;;;25.4;63.2;99200;;;;
2022/08/08 14:26:53;;;;;;;1.2;3.3;;;;;;;26.5;61.7;99200;;;;
2022/08/08 14:36:53;;;;;;;1;4;;;;;;;26.6;60.6;99200;;;;
2022/08/08 14:46:53;;;;;;;1;4;;;;;;;25.5;60.1;99190;;;;
2022/08/08 14:57:53;;;;;;;1;4;;;;;;;24.4;65.5;99200;;;;
2022/08/08 15:07:53;;;;;;;1.1;3.7;;;;;;;23.5;67.9;99190;;;;
2022/08/08 15:17:53;;;;;;;1.1;3.7;;;;;;;23.1;74.8;99180;;;;
2022/08/08 15:27:53;;;;;;;1.1;3.7;;;;;;;23.4;75.9;99190;;;;
2022/08/08 15:38:54;;;;;;;1.2;3.8;;;;;;;23.7;79.3;99200;;;;
2022/08/08 15:48:53;;;;;;;1.2;3.8;;;;;;;23.6;76;99190;;;;
2022/08/08 15:59:53;;;;;;;2.7;4.9;;;;;;;23.3;78.8;99190;;;;
2022/08/08 16:09:53;;;;;;;2.7;4.9;;;;;;;22.6;77.9;99190;;;;
2022/08/08 16:20:53;;;;;;;2.7;4.9;;;;;;;22.6;78.7;99200;;;;
2022/08/08 16:30:53;;;;;;;1.8;4.6;;;;;;;22.4;81.3;99210;;;;
2022/08/08 16:40:55;;;;;;;1.8;4.6;;;;;;;22.1;81.9;99200;;;;
2022/08/08 16:51:54;;;;;;;1.8;4.6;;;;;;;22;84.7;99200;;;;
2022/08/08 17:01:53;;;;;;;1.4;3.4;;;;;;;22;85.7;99200;;;;
2022/08/08 17:12:53;;;;;;;1.4;3.4;;;;;;;21.9;87.3;99190;;;;
2022/08/08 17:23:53;;;;;;;1.4;3.4;;;;;;;21.9;87.7;99210;;;;
2022/08/08 17:33:54;;;;;;;1.9;5.6;;;;;;;21.7;88.7;99210;;;;
2022/08/08 17:44:53;;;;;;;1.9;5.6;;;;;;;21.2;90.7;99210;;;;
2022/08/08 17:54:53;;;;;;;1.9;5.6;;;;;;;21.1;91.5;99230;;;;
2022/08/08 18:04:56;;;;;;;2.6;7.6;;;;;;;20.9;91.1;99230;;;;
2022/08/08 18:15:53;;;;;;;2.6;7.6;;;;;;;20.5;97;99230;;;;
2022/08/08 18:26:53;;;;;;;2.6;7.6;;;;;;;19.9;100;99250;;;;
2022/08/08 18:37:55;;;;;;;3.6;9.8;;;;;;;19.4;100;99260;;;;
2022/08/08 18:47:53;;;;;;;3.6;9.8;;;;;;;18.9;100;99270;;;;
2022/08/08 18:58:54;;;;;;;3.6;9.8;;;;;;;18.5;100;99280;;;;
2022/08/08 19:09:53;;;;;;;36.1;51.8;;;;;;;18.4;100;99290;;;;
2022/08/08 19:19:53;;;;;;;36.1;51.8;;;;;;;18.3;100;99290;;;;
2022/08/08 19:30:55;;;;;;;17.2;27.5;;;;;;;18;100;99280;;;;
2022/08/08 19:41:53;;;;;;;17.2;27.5;;;;;;;17.6;100;99280;;;;
2022/08/08 19:52:54;;;;;;;17.2;27.5;;;;;;;17.5;100;99280;;;;
2022/08/08 20:03:55;;;;;;;5.7;9.9;;;;;;;17.7;100;99290;;;;
2022/08/08 20:14:53;;;;;;;5.7;9.9;;;;;;;17.8;100;99290;;;;
2022/08/08 20:25:53;;;;;;;5.7;9.9;;;;;;;17.9;100;99280;;;;
2022/08/08 20:36:53;;;;;;;5.6;10;;;;;;;18;100;99280;;;;
2022/08/08 20:46:53;;;;;;;5.6;10;;;;;;;18;100;99290;;;;
2022/08/08 20:56:53;;;;;;;5.6;10;;;;;;;17.9;100;99290;;;;
2022/08/08 21:07:53;;;;;;;4.7;8.7;;;;;;;18;100;99280;;;;
2022/08/08 21:17:53;;;;;;;4.7;8.7;;;;;;;17.9;100;99290;;;;
2022/08/08 21:27:53;;;;;;;4.7;8.7;;;;;;;17.7;100;99290;;;;
2022/08/08 21:38:53;;;;;;;5.1;10.6;;;;;;;17.2;100;99290;;;;
2022/08/08 21:49:54;;;;;;;5.1;10.6;;;;;;;16.9;100;99300;;;;
2022/08/08 22:00:53;;;;;;;5.7;9.8;;;;;;;16.7;100;99290;;;;
2022/08/08 22:10:53;;;;;;;5.7;9.8;;;;;;;16.5;100;99290;;;;
2022/08/08 22:21:54;;;;;;;5.7;9.8;;;;;;;16.5;100;99290;;;;
2022/08/08 22:32:54;;;;;;;5.3;8.3;;;;;;;16.6;100;99300;;;;
2022/08/08 22:43:53;;;;;;;5.3;8.3;;;;;;;16.7;100;99300;;;;
2022/08/08 22:53:53;;;;;;;5.3;8.3;;;;;;;16.8;100;99300;;;;
2022/08/08 23:03:53;;;;;;;4.5;7.6;;;;;;;16.9;100;99300;;;;
2022/08/08 23:14:53;;;;;;;4.5;7.6;;;;;;;16.8;100;99320;;;;
2022/08/08 23:24:53;;;;;;;4.5;7.6;;;;;;;16.6;100;99320;;;;
2022/08/08 23:35:54;;;;;;;4;6.3;;;;;;;16.6;100;99310;;;;
2022/08/08 23:46:53;;;;;;;4;6.3;;;;;;;16.6;100;99310;;;;
2022/08/08 23:56:55;;;;;;;4;6.3;;;;;;;16.5;100;99300;;;;
